Time;durP1;ratioP1;P1;durP2;ratioP2;P2;SDS_P1;SDS_P2;PMS_P1;PMS_P2;Temp;Humidity;BMP_temperature;BMP_pressure;BME280_temperature;BME280_humidity;BME280_pressure;Samples;Min_cycle;Max_cycle;Signal;HPM_P1;HPM_P2
2022/09/25 00:02:16;;;;;;;30.38;25.35;;;;;;;;;;6273713;28;20255;-78
2022/09/25 00:05:21;;;;;;;29.30;25.83;;;;;;;;;;6273571;28;20076;-78
2022/09/25 00:08:23;;;;;;;33.42;26.80;;;;;;;;;;6272150;28;20120;-78
2022/09/25 00:11:27;;;;;;;28.15;24.38;;;;;;;;;;6279235;28;20139;-77
2022/09/25 00:14:28;;;;;;;;;;;;;;;;;;6277886;28;20040;-78
2022/09/25 00:17:30;;;;;;;30.67;25.23;;;;;;;;;;6275905;28;19921;-78
2022/09/25 00:20:32;;;;;;;30.00;25.00;;;;;;;;;;6275919;28;20279;-78
2022/09/25 00:23:34;;;;;;;28.83;23.75;;;;;;;;;;6277922;28;20067;-79
2022/09/25 00:26:38;;;;;;;27.98;24.73;;;;;;;;;;6277023;28;20060;-78
2022/09/25 00:29:40;;;;;;;29.40;25.13;;;;;;;;;;6274367;28;20095;-79
2022/09/25 00:32:43;;;;;;;28.73;24.35;;;;;;;;;;6277445;28;20162;-79
2022/09/25 00:35:46;;;;;;;33.88;25.15;;;;;;;;;;6274690;28;20271;-78
2022/09/25 00:38:48;;;;;;;27.83;23.33;;;;;;;;;;6277953;28;20061;-78
2022/09/25 00:41:49;;;;;;;27.50;22.38;;;;;;;;;;6278915;28;20104;-78
2022/09/25 00:44:56;;;;;;;28.77;23.17;;;;;;;;;;6276300;28;20117;-78
2022/09/25 00:47:58;;;;;;;27.88;22.25;;;;;;;;;;6274105;28;20079;-78
2022/09/25 00:51:02;;;;;;;25.50;21.35;;;;;;;;;;6277610;28;20056;-78
2022/09/25 00:54:05;;;;;;;24.77;21.13;;;;;;;;;;6275219;28;20128;-78
2022/09/25 00:57:12;;;;;;;30.23;21.73;;;;;;;;;;6276673;28;20057;-78
2022/09/25 01:00:15;;;;;;;26.65;21.98;;;;;;;;;;6276815;28;20045;-78
2022/09/25 01:03:17;;;;;;;24.30;21.63;;;;;;;;;;6276979;28;20056;-77
2022/09/25 01:06:21;;;;;;;24.83;20.90;;;;;;;;;;6277084;28;20254;-78
2022/09/25 01:09:23;;;;;;;24.67;20.55;;;;;;;;;;6275440;28;20418;-77
2022/09/25 01:12:24;;;;;;;24.40;20.90;;;;;;;;;;6275154;28;20076;-78
2022/09/25 01:15:32;;;;;;;25.33;21.75;;;;;;;;;;6279232;28;20041;-79
2022/09/25 01:18:53;;;;;;;23.20;19.70;;;;;;;;;;6277368;28;20232;-78
2022/09/25 01:22:03;;;;;;;23.17;20.27;;;;;;;;;;6276713;28;20060;-79
2022/09/25 01:25:11;;;;;;;24.98;20.80;;;;;;;;;;6277246;28;20347;-78
2022/09/25 01:28:24;;;;;;;22.63;20.23;;;;;;;;;;6275148;28;20076;-78
2022/09/25 01:31:32;;;;;;;23.23;19.93;;;;;;;;;;6277830;28;20112;-77
2022/09/25 01:34:40;;;;;;;23.42;19.80;;;;;;;;;;6276094;28;20044;-80
2022/09/25 01:37:44;;;;;;;22.35;19.90;;;;;;;;;;6278657;28;20057;-80
2022/09/25 01:40:50;;;;;;;22.20;18.65;;;;;;;;;;6279060;28;20048;-78
2022/09/25 01:43:56;;;;;;;20.25;17.45;;;;;;;;;;6275577;28;20053;-78
2022/09/25 01:47:04;;;;;;;20.77;18.30;;;;;;;;;;6278001;28;20045;-78
2022/09/25 01:50:08;;;;;;;18.70;16.70;;;;;;;;;;6275729;28;20068;-78
2022/09/25 01:53:14;;;;;;;22.05;17.90;;;;;;;;;;6276443;28;20052;-78
2022/09/25 01:56:20;;;;;;;19.30;17.27;;;;;;;;;;6273735;28;20049;-77
2022/09/25 01:59:27;;;;;;;21.58;17.80;;;;;;;;;;6273891;28;20382;-78
2022/09/25 02:02:35;;;;;;;19.95;17.40;;;;;;;;;;6273101;28;20056;-78
2022/09/25 02:05:41;;;;;;;18.63;16.63;;;;;;;;;;6274136;28;20052;-77
2022/09/25 02:08:47;;;;;;;18.55;16.08;;;;;;;;;;6274904;28;20056;-78
2022/09/25 02:11:52;;;;;;;20.52;16.48;;;;;;;;;;6276654;28;20048;-78
2022/09/25 02:14:55;;;;;;;18.77;16.15;;;;;;;;;;6277737;28;20095;-78
2022/09/25 02:21:26;;;;;;;18.40;15.68;;;;;;;;;;6280075;28;20499;-79
2022/09/25 02:24:33;;;;;;;18.60;16.45;;;;;;;;;;6280953;28;20217;-78
2022/09/25 02:27:34;;;;;;;18.30;16.02;;;;;;;;;;6281582;28;20332;-78
2022/09/25 02:30:36;;;;;;;16.67;14.95;;;;;;;;;;6281110;28;20044;-76
2022/09/25 02:33:39;;;;;;;17.20;15.40;;;;;;;;;;6279197;28;20045;-78
2022/09/25 02:36:41;;;;;;;17.20;15.07;;;;;;;;;;6280412;28;20102;-78
2022/09/25 02:39:46;;;;;;;17.88;15.55;;;;;;;;;;6280774;28;20187;-78
2022/09/25 02:42:51;;;;;;;17.48;15.10;;;;;;;;;;6280890;28;20106;-78
2022/09/25 02:45:59;;;;;;;16.55;14.60;;;;;;;;;;6281203;28;20098;-78
2022/09/25 02:49:09;;;;;;;18.33;16.17;;;;;;;;;;6277165;28;20233;-78
2022/09/25 02:52:13;;;;;;;16.38;14.57;;;;;;;;;;6271402;28;20071;-78
2022/09/25 02:55:19;;;;;;;17.55;14.25;;;;;;;;;;6272213;28;20045;-79
2022/09/25 02:58:26;;;;;;;15.63;13.95;;;;;;;;;;6270786;28;20978;-78
2022/09/25 03:01:28;;;;;;;16.13;14.00;;;;;;;;;;6273794;28;20056;-78
2022/09/25 03:04:34;;;;;;;17.55;14.82;;;;;;;;;;6270205;28;20187;-78
2022/09/25 03:08:36;;;;;;;15.93;14.07;;;;;;;;;;6276749;28;20099;-78
2022/09/25 03:11:01;;;;;;;15.77;14.13;;;;;;;;;;6273314;28;20240;-78
2022/09/25 03:14:04;;;;;;;15.02;13.27;;;;;;;;;;6273744;28;20064;-78
2022/09/25 03:17:08;;;;;;;16.73;13.75;;;;;;;;;;6276596;28;20213;-78
2022/09/25 03:20:11;;;;;;;19.63;14.60;;;;;;;;;;6274075;28;20294;-78
2022/09/25 03:23:13;;;;;;;20.37;13.90;;;;;;;;;;6277973;28;20107;-78
2022/09/25 03:26:14;;;;;;;15.10;13.50;;;;;;;;;;6277190;28;20463;-78
2022/09/25 03:29:16;;;;;;;15.88;13.68;;;;;;;;;;6275367;28;20053;-77
2022/09/25 03:32:18;;;;;;;14.80;13.18;;;;;;;;;;6273470;28;20083;-77
2022/09/25 03:35:21;;;;;;;14.73;13.30;;;;;;;;;;6273471;28;20094;-76
2022/09/25 03:38:22;;;;;;;14.13;11.83;;;;;;;;;;6272412;28;20056;-78
2022/09/25 03:41:26;;;;;;;14.40;12.45;;;;;;;;;;6272268;28;20048;-78
2022/09/25 03:44:28;;;;;;;14.07;12.38;;;;;;;;;;6272696;28;20078;-77
2022/09/25 03:47:29;;;;;;;14.52;12.35;;;;;;;;;;6271161;28;20102;-78
2022/09/25 03:50:33;;;;;;;14.98;12.88;;;;;;;;;;6274677;28;20083;-78
2022/09/25 03:53:34;;;;;;;14.25;12.75;;;;;;;;;;6273575;28;20045;-77
2022/09/25 03:56:37;;;;;;;15.73;12.57;;;;;;;;;;6272983;28;20114;-78
2022/09/25 03:59:38;;;;;;;14.38;12.20;;;;;;;;;;6278533;28;20116;-78
2022/09/25 04:02:40;;;;;;;14.38;12.80;;;;;;;;;;6279914;28;20569;-76
2022/09/25 04:05:43;;;;;;;14.40;12.55;;;;;;;;;;6279118;28;20206;-77
2022/09/25 04:08:46;;;;;;;14.52;12.90;;;;;;;;;;6273091;28;20099;-77
2022/09/25 04:11:47;;;;;;;17.20;14.67;;;;;;;;;;6271982;28;20045;-77
2022/09/25 04:14:49;;;;;;;17.67;13.15;;;;;;;;;;6272660;28;20061;-78
2022/09/25 04:17:52;;;;;;;15.20;13.60;;;;;;;;;;6272914;28;20069;-77
2022/09/25 04:20:55;;;;;;;15.32;13.32;;;;;;;;;;6274455;28;20049;-76
2022/09/25 04:27:17;;;;;;;13.23;11.77;;;;;;;;;;6273155;28;20671;-78
2022/09/25 04:30:19;;;;;;;14.43;12.73;;;;;;;;;;6271681;28;20053;-77
2022/09/25 04:36:41;;;;;;;14.73;12.27;;;;;;;;;;6271642;28;20044;-78
2022/09/25 04:39:42;;;;;;;13.18;11.77;;;;;;;;;;6271546;28;20056;-78
2022/09/25 04:42:44;;;;;;;13.32;11.73;;;;;;;;;;6273194;28;20057;-78
2022/09/25 04:45:46;;;;;;;13.13;11.60;;;;;;;;;;6276448;28;20171;-77
2022/09/25 04:48:48;;;;;;;13.25;11.65;;;;;;;;;;6277931;28;20056;-78
2022/09/25 04:51:51;;;;;;;13.20;11.85;;;;;;;;;;6276415;28;20358;-78
2022/09/25 04:54:53;;;;;;;12.43;11.13;;;;;;;;;;6274989;28;20059;-78
2022/09/25 04:57:55;;;;;;;13.32;11.93;;;;;;;;;;6276421;28;20150;-79
2022/09/25 05:01:02;;;;;;;12.95;11.65;;;;;;;;;;6274484;28;20065;-78
2022/09/25 05:04:03;;;;;;;12.88;11.57;;;;;;;;;;6277498;28;20054;-77
2022/09/25 05:07:06;;;;;;;14.05;12.55;;;;;;;;;;6276781;28;20098;-78
2022/09/25 05:10:08;;;;;;;13.40;12.07;;;;;;;;;;6275881;28;20228;-78
2022/09/25 05:13:10;;;;;;;13.00;11.68;;;;;;;;;;6276698;28;20475;-78
2022/09/25 05:16:12;;;;;;;14.73;12.05;;;;;;;;;;6273944;28;20361;-77
2022/09/25 05:19:14;;;;;;;13.45;12.05;;;;;;;;;;6275040;28;20232;-77
2022/09/25 05:22:17;;;;;;;13.25;11.80;;;;;;;;;;6276430;28;20057;-77
2022/09/25 05:25:22;;;;;;;15.43;12.53;;;;;;;;;;6275980;28;20056;-77
2022/09/25 05:28:23;;;;;;;13.68;12.07;;;;;;;;;;6274691;28;20045;-75
2022/09/25 05:31:25;;;;;;;13.43;12.02;;;;;;;;;;6276441;28;20057;-77
2022/09/25 05:34:27;;;;;;;14.73;11.82;;;;;;;;;;6273260;28;20218;-80
2022/09/25 05:37:30;;;;;;;14.73;12.25;;;;;;;;;;6275706;28;20045;-78
2022/09/25 05:40:31;;;;;;;12.53;10.80;;;;;;;;;;6275622;28;20095;-76
2022/09/25 05:43:34;;;;;;;12.50;10.63;;;;;;;;;;6278391;28;20045;-78
2022/09/25 05:46:36;;;;;;;11.67;10.47;;;;;;;;;;6275161;28;20107;-78
2022/09/25 05:49:38;;;;;;;12.75;11.43;;;;;;;;;;6275146;28;20061;-78
2022/09/25 05:52:41;;;;;;;11.73;10.45;;;;;;;;;;6274503;28;20291;-78
2022/09/25 05:55:42;;;;;;;12.32;10.55;;;;;;;;;;6274150;28;20056;-78
2022/09/25 05:58:44;;;;;;;12.07;10.82;;;;;;;;;;6275789;28;20052;-78
2022/09/25 06:01:46;;;;;;;11.60;10.25;;;;;;;;;;6273320;28;20053;-78
2022/09/25 06:04:47;;;;;;;12.85;11.55;;;;;;;;;;6272635;28;20049;-76
2022/09/25 06:07:53;;;;;;;13.45;11.88;;;;;;;;;;6275058;28;20339;-78
2022/09/25 06:10:55;;;;;;;13.15;11.57;;;;;;;;;;6272528;28;20076;-78
2022/09/25 06:13:57;;;;;;;14.38;12.23;;;;;;;;;;6274520;28;20063;-77
2022/09/25 06:16:59;;;;;;;13.85;12.35;;;;;;;;;;6273522;28;20059;-77
2022/09/25 06:20:01;;;;;;;13.90;12.30;;;;;;;;;;6274894;28;20063;-77
2022/09/25 06:23:04;;;;;;;14.07;12.45;;;;;;;;;;6273484;28;20056;-77
2022/09/25 06:26:09;;;;;;;14.05;12.55;;;;;;;;;;6274335;28;20052;-78
2022/09/25 06:29:10;;;;;;;14.45;12.95;;;;;;;;;;6269721;28;20045;-78
2022/09/25 06:32:12;;;;;;;15.05;13.48;;;;;;;;;;6273081;28;20049;-77
2022/09/25 06:35:14;;;;;;;16.40;12.48;;;;;;;;;;6275393;28;20099;-78
2022/09/25 06:38:17;;;;;;;14.52;12.48;;;;;;;;;;6270337;28;20052;-78
2022/09/25 06:41:18;;;;;;;15.52;12.20;;;;;;;;;;6273159;28;20052;-78
2022/09/25 06:44:21;;;;;;;12.95;11.45;;;;;;;;;;6273528;28;20258;-78
2022/09/25 06:47:22;;;;;;;14.35;12.25;;;;;;;;;;6272742;28;20045;-78
2022/09/25 06:50:30;;;;;;;14.70;12.63;;;;;;;;;;6273848;28;20068;-78
2022/09/25 06:53:33;;;;;;;13.20;11.80;;;;;;;;;;6274873;28;20107;-78
2022/09/25 06:56:35;;;;;;;13.37;11.30;;;;;;;;;;6274424;28;20059;-78
2022/09/25 06:59:36;;;;;;;12.98;11.18;;;;;;;;;;6274050;28;20907;-77
2022/09/25 07:05:59;;;;;;;12.40;11.10;;;;;;;;;;6269624;28;20052;-78
2022/09/25 07:09:02;;;;;;;13.77;12.13;;;;;;;;;;6272534;28;20078;-71
2022/09/25 07:12:06;;;;;;;12.83;10.97;;;;;;;;;;6272471;28;20285;-78
2022/09/25 07:15:08;;;;;;;13.48;11.65;;;;;;;;;;6272399;28;20060;-78
2022/09/25 07:18:10;;;;;;;12.55;11.25;;;;;;;;;;6274152;28;20367;-77
2022/09/25 07:21:13;;;;;;;13.30;11.10;;;;;;;;;;6272747;28;20059;-76
2022/09/25 07:24:16;;;;;;;14.40;11.27;;;;;;;;;;6273891;28;20056;-74
2022/09/25 07:27:18;;;;;;;13.63;10.75;;;;;;;;;;6272886;28;20339;-73
2022/09/25 07:30:19;;;;;;;12.35;11.05;;;;;;;;;;6269442;28;20056;-75
2022/09/25 07:33:23;;;;;;;11.43;9.93;;;;;;;;;;6273687;28;20060;-73
2022/09/25 07:36:25;;;;;;;11.00;9.90;;;;;;;;;;6269991;28;20079;-73
2022/09/25 07:39:28;;;;;;;13.00;11.00;;;;;;;;;;6272499;28;20052;-75
2022/09/25 07:42:31;;;;;;;12.03;10.20;;;;;;;;;;6272772;28;20060;-75
2022/09/25 07:45:32;;;;;;;12.30;11.00;;;;;;;;;;6274264;28;20057;-72
2022/09/25 07:48:34;;;;;;;13.68;11.27;;;;;;;;;;6271728;28;20049;-70
2022/09/25 07:51:36;;;;;;;11.98;10.60;;;;;;;;;;6272748;28;20056;-73
2022/09/25 07:54:39;;;;;;;11.10;9.90;;;;;;;;;;6268738;28;20358;-70
2022/09/25 07:57:42;;;;;;;11.43;10.00;;;;;;;;;;6272390;28;20061;-72
2022/09/25 08:00:44;;;;;;;12.40;9.27;;;;;;;;;;6270996;28;20076;-71
2022/09/25 08:03:45;;;;;;;11.27;9.85;;;;;;;;;;6270142;28;20064;-72
2022/09/25 08:06:47;;;;;;;11.38;10.02;;;;;;;;;;6269153;28;20103;-70
2022/09/25 08:09:50;;;;;;;11.73;9.77;;;;;;;;;;6271592;28;20750;-70
2022/09/25 08:12:52;;;;;;;10.90;9.68;;;;;;;;;;6270996;28;20079;-70
2022/09/25 08:15:55;;;;;;;10.45;9.35;;;;;;;;;;6274356;28;20057;-71
2022/09/25 08:18:56;;;;;;;12.07;10.57;;;;;;;;;;6279650;28;20049;-72
2022/09/25 08:21:58;;;;;;;10.93;9.82;;;;;;;;;;6284280;28;20115;-71
2022/09/25 08:25:01;;;;;;;11.73;9.90;;;;;;;;;;6279697;28;20359;-71
2022/09/25 08:28:03;;;;;;;12.15;10.63;;;;;;;;;;6276526;28;20076;-73
2022/09/25 08:31:05;;;;;;;11.23;9.85;;;;;;;;;;6274571;28;20263;-71
2022/09/25 08:34:07;;;;;;;9.13;8.18;;;;;;;;;;6275851;28;20151;-72
2022/09/25 08:37:09;;;;;;;11.48;9.65;;;;;;;;;;6274285;28;20056;-72
2022/09/25 08:40:17;;;;;;;11.45;9.02;;;;;;;;;;6273842;28;20107;-71
2022/09/25 08:43:22;;;;;;;10.18;8.70;;;;;;;;;;6277686;28;20080;-74
2022/09/25 08:50:01;;;;;;;10.10;8.05;;;;;;;;;;6275357;28;20320;-71
2022/09/25 08:53:06;;;;;;;9.95;8.20;;;;;;;;;;6274481;28;20228;-70
2022/09/25 08:56:16;;;;;;;11.20;7.97;;;;;;;;;;6275171;28;20053;-71
2022/09/25 08:59:23;;;;;;;29.52;20.25;;;;;;;;;;6276178;28;20037;-73
2022/09/25 09:02:32;;;;;;;11.38;9.07;;;;;;;;;;6275087;28;20065;-73
2022/09/25 09:05:36;;;;;;;9.93;8.77;;;;;;;;;;6274163;28;20056;-74
2022/09/25 09:08:37;;;;;;;;;;;;;;;;;;6274709;28;20343;-72
2022/09/25 09:11:44;;;;;;;11.85;8.30;;;;;;;;;;6274340;28;19940;-71
2022/09/25 09:14:48;;;;;;;10.45;8.80;;;;;;;;;;6274177;28;20336;-72
2022/09/25 09:17:49;;;;;;;12.60;9.93;;;;;;;;;;6271750;28;20225;-73
2022/09/25 09:20:53;;;;;;;14.32;10.75;;;;;;;;;;6275259;28;20056;-72
2022/09/25 09:24:00;;;;;;;13.95;10.82;;;;;;;;;;6273789;28;20271;-71
2022/09/25 09:27:17;;;;;;;13.45;11.15;;;;;;;;;;6271868;28;20052;-73
2022/09/25 09:30:20;;;;;;;12.93;10.77;;;;;;;;;;6273579;28;20465;-72
2022/09/25 09:33:40;;;;;;;12.52;10.30;;;;;;;;;;6274403;28;20095;-72
2022/09/25 09:36:46;;;;;;;12.57;10.77;;;;;;;;;;6272917;28;20107;-73
2022/09/25 09:39:58;;;;;;;12.40;10.88;;;;;;;;;;6274112;28;20187;-71
2022/09/25 09:43:08;;;;;;;13.07;10.73;;;;;;;;;;6276165;28;20049;-71
2022/09/25 09:46:17;;;;;;;14.73;11.65;;;;;;;;;;6277200;28;20060;-74
2022/09/25 09:49:25;;;;;;;13.27;10.55;;;;;;;;;;6275432;28;20114;-71
2022/09/25 09:52:31;;;;;;;12.90;10.00;;;;;;;;;;6272761;28;20052;-71
2022/09/25 09:55:39;;;;;;;12.20;10.25;;;;;;;;;;6273585;28;20056;-71
2022/09/25 09:58:45;;;;;;;15.30;10.90;;;;;;;;;;6272394;28;20116;-71
2022/09/25 10:01:54;;;;;;;12.15;10.45;;;;;;;;;;6273484;28;20174;-75
2022/09/25 10:04:57;;;;;;;11.38;9.43;;;;;;;;;;6272198;28;20491;-74
2022/09/25 10:07:59;;;;;;;12.90;10.68;;;;;;;;;;6273888;28;20110;-72
2022/09/25 10:11:04;;;;;;;14.18;10.50;;;;;;;;;;6274142;28;20200;-72
2022/09/25 10:14:13;;;;;;;11.43;9.93;;;;;;;;;;6273170;28;20064;-73
2022/09/25 10:17:15;;;;;;;11.88;10.52;;;;;;;;;;6273863;28;20060;-73
2022/09/25 10:20:20;;;;;;;12.10;9.68;;;;;;;;;;6275937;28;20359;-72
2022/09/25 10:23:32;;;;;;;11.85;10.15;;;;;;;;;;6273090;28;20049;-71
2022/09/25 10:26:35;;;;;;;10.35;9.25;;;;;;;;;;6272081;28;20080;-71
2022/09/25 10:29:38;;;;;;;;;;;;;;;;;;6273682;28;20337;-71
2022/09/25 10:32:43;;;;;;;10.15;9.10;;;;;;;;;;6272607;28;19929;-71
2022/09/25 10:35:45;;;;;;;12.38;9.82;;;;;;;;;;6272866;28;20277;-71
2022/09/25 10:38:49;;;;;;;11.25;8.93;;;;;;;;;;6274179;28;20052;-72
2022/09/25 10:41:51;;;;;;;11.52;9.25;;;;;;;;;;6273961;28;20049;-72
2022/09/25 10:44:55;;;;;;;11.40;10.10;;;;;;;;;;6275354;28;20237;-72
2022/09/25 10:51:18;;;;;;;10.95;9.38;;;;;;;;;;6275369;28;20040;-72
2022/09/25 10:54:20;;;;;;;12.13;10.25;;;;;;;;;;6272708;28;20249;-72
2022/09/25 10:57:32;;;;;;;11.50;10.30;;;;;;;;;;6273857;28;20059;-72
2022/09/25 11:00:41;;;;;;;10.52;9.50;;;;;;;;;;6272615;28;20108;-71
2022/09/25 11:03:50;;;;;;;12.32;9.48;;;;;;;;;;6272589;28;20049;-72
2022/09/25 11:06:53;;;;;;;10.00;9.00;;;;;;;;;;6272099;28;20057;-72
2022/09/25 11:09:55;;;;;;;12.25;11.00;;;;;;;;;;6272604;28;20332;-74
2022/09/25 11:12:58;;;;;;;11.35;10.23;;;;;;;;;;6271356;28;20066;-72
2022/09/25 11:16:02;;;;;;;11.50;10.23;;;;;;;;;;6273011;28;20052;-71
2022/09/25 11:19:07;;;;;;;12.77;9.77;;;;;;;;;;6272608;28;20060;-72
2022/09/25 11:22:18;;;;;;;15.05;13.48;;;;;;;;;;6273204;28;20060;-71
2022/09/25 11:25:24;;;;;;;15.27;13.13;;;;;;;;;;6272601;28;20138;-70
2022/09/25 11:28:30;;;;;;;16.95;14.05;;;;;;;;;;6274124;28;20079;-73
2022/09/25 11:31:37;;;;;;;16.33;13.57;;;;;;;;;;6271748;28;20102;-72
2022/09/25 11:34:58;;;;;;;16.27;13.70;;;;;;;;;;6272402;28;20068;-71
2022/09/25 11:38:07;;;;;;;13.95;12.45;;;;;;;;;;6271389;28;20102;-70
2022/09/25 11:41:13;;;;;;;12.57;11.27;;;;;;;;;;6274005;28;20041;-70
2022/09/25 11:44:21;;;;;;;12.75;11.45;;;;;;;;;;6272316;28;20053;-72
2022/09/25 11:47:29;;;;;;;13.23;11.60;;;;;;;;;;6275959;28;20048;-74
2022/09/25 11:50:38;;;;;;;18.23;12.65;;;;;;;;;;6277841;28;20045;-72
2022/09/25 11:53:46;;;;;;;12.57;11.27;;;;;;;;;;6281703;28;20060;-74
2022/09/25 11:56:52;;;;;;;12.23;10.82;;;;;;;;;;6284267;28;20048;-71
2022/09/25 12:00:04;;;;;;;12.55;10.60;;;;;;;;;;6283671;28;20108;-71
2022/09/25 12:03:21;;;;;;;10.88;9.50;;;;;;;;;;6282938;28;20312;-72
2022/09/25 12:06:52;;;;;;;11.55;9.80;;;;;;;;;;6282161;28;20052;-70
2022/09/25 12:10:07;;;;;;;10.20;9.20;;;;;;;;;;6259941;28;20123;-71
2022/09/25 12:13:16;;;;;;;9.60;8.63;;;;;;;;;;6281877;28;20060;-74
2022/09/25 12:16:23;;;;;;;11.95;8.70;;;;;;;;;;6281991;28;20291;-78
2022/09/25 12:19:36;;;;;;;10.10;9.10;;;;;;;;;;6283543;28;20382;-76
2022/09/25 12:22:47;;;;;;;9.90;8.85;;;;;;;;;;6283521;28;20099;-78
2022/09/25 12:25:58;;;;;;;9.52;8.52;;;;;;;;;;6284503;28;20090;-76
2022/09/25 12:29:12;;;;;;;9.15;7.80;;;;;;;;;;6284174;28;20060;-76
2022/09/25 12:32:22;;;;;;;12.90;7.32;;;;;;;;;;6282336;28;20063;-74
2022/09/25 12:35:34;;;;;;;8.45;7.55;;;;;;;;;;6281859;28;20044;-72
2022/09/25 12:38:40;;;;;;;8.23;7.43;;;;;;;;;;6282862;28;20102;-71
2022/09/25 12:41:46;;;;;;;7.72;6.93;;;;;;;;;;6282826;28;20048;-71
2022/09/25 12:44:51;;;;;;;8.05;7.05;;;;;;;;;;6281467;28;20052;-69
2022/09/25 12:48:11;;;;;;;7.78;6.40;;;;;;;;;;6278444;28;20259;-70
2022/09/25 12:51:17;;;;;;;6.60;6.00;;;;;;;;;;6276361;28;20095;-74
2022/09/25 12:54:25;;;;;;;8.43;7.10;;;;;;;;;;6274459;28;20328;-72
2022/09/25 12:57:31;;;;;;;8.32;6.97;;;;;;;;;;6278590;28;20132;-71
2022/09/25 13:00:35;;;;;;;7.88;7.07;;;;;;;;;;6275625;28;20349;-73
2022/09/25 13:03:43;;;;;;;7.88;6.63;;;;;;;;;;6279901;28;20095;-73
2022/09/25 13:06:50;;;;;;;6.72;5.55;;;;;;;;;;6271776;28;20052;-73
2022/09/25 13:09:52;;;;;;;5.85;5.22;;;;;;;;;;6275832;28;20404;-73
2022/09/25 13:12:56;;;;;;;6.07;5.25;;;;;;;;;;6275854;28;20064;-72
2022/09/25 13:16:00;;;;;;;8.05;6.00;;;;;;;;;;6275404;28;20053;-72
2022/09/25 13:19:12;;;;;;;9.13;5.30;;;;;;;;;;6280292;28;20053;-71
2022/09/25 13:22:19;;;;;;;7.43;4.93;;;;;;;;;;6280298;28;20505;-72
2022/09/25 13:25:20;;;;;;;5.55;4.70;;;;;;;;;;6278053;28;20067;-70
2022/09/25 13:28:25;;;;;;;6.85;5.57;;;;;;;;;;6275497;28;20049;-72
2022/09/25 13:31:28;;;;;;;5.25;4.35;;;;;;;;;;6277276;28;20312;-72
2022/09/25 13:34:34;;;;;;;4.78;4.38;;;;;;;;;;6274218;28;20328;-72
2022/09/25 13:37:38;;;;;;;5.45;4.57;;;;;;;;;;6276226;28;20212;-74
2022/09/25 13:40:41;;;;;;;6.43;4.43;;;;;;;;;;6278561;28;20049;-72
2022/09/25 13:43:44;;;;;;;5.45;4.93;;;;;;;;;;6280521;28;20044;-73
2022/09/25 13:46:45;;;;;;;5.30;4.80;;;;;;;;;;6276630;28;20049;-73
2022/09/25 13:49:51;;;;;;;5.05;4.53;;;;;;;;;;6275352;28;20060;-74
2022/09/25 13:53:20;;;;;;;4.75;4.10;;;;;;;;;;6273567;28;20076;-73
2022/09/25 13:56:24;;;;;;;3.97;3.58;;;;;;;;;;6271323;28;20304;-72
2022/09/25 13:59:37;;;;;;;4.10;3.70;;;;;;;;;;6273589;28;20057;-74
2022/09/25 14:02:42;;;;;;;4.75;3.35;;;;;;;;;;6273107;28;20087;-74
2022/09/25 14:05:44;;;;;;;4.28;3.60;;;;;;;;;;6274107;28;20340;-74
2022/09/25 14:08:48;;;;;;;4.65;3.80;;;;;;;;;;6273260;28;20052;-74
2022/09/25 14:11:51;;;;;;;;;;;;;;;;;;6271375;28;20263;-74
2022/09/25 14:14:56;;;;;;;4.22;3.53;;;;;;;;;;6277968;28;19951;-73
2022/09/25 14:17:59;;;;;;;4.20;3.53;;;;;;;;;;6273264;28;20060;-74
2022/09/25 14:21:01;;;;;;;5.63;3.58;;;;;;;;;;6273781;28;20344;-74
2022/09/25 14:24:19;;;;;;;3.92;3.53;;;;;;;;;;6275540;28;20235;-73
2022/09/25 14:27:25;;;;;;;4.10;3.55;;;;;;;;;;6278863;28;20066;-73
2022/09/25 14:30:29;;;;;;;5.68;3.47;;;;;;;;;;6278812;28;20059;-72
2022/09/25 14:33:55;;;;;;;4.82;4.32;;;;;;;;;;6272847;28;20248;-74
2022/09/25 14:37:06;;;;;;;5.65;3.95;;;;;;;;;;6279715;28;20056;-76
2022/09/25 14:40:18;;;;;;;4.97;4.47;;;;;;;;;;6277669;28;20091;-75
2022/09/25 14:43:44;;;;;;;5.72;4.53;;;;;;;;;;6273739;28;21113;-74
2022/09/25 14:46:48;;;;;;;5.47;4.97;;;;;;;;;;6279053;28;20053;-72
2022/09/25 14:49:51;;;;;;;5.80;5.03;;;;;;;;;;6276179;28;20660;-82
2022/09/25 14:52:56;;;;;;;5.93;5.32;;;;;;;;;;6278216;28;20064;-74
2022/09/25 14:56:01;;;;;;;7.13;6.43;;;;;;;;;;6277240;28;20328;-74
2022/09/25 14:59:09;;;;;;;6.40;5.75;;;;;;;;;;6278319;28;20094;-75
2022/09/25 15:02:15;;;;;;;6.35;5.75;;;;;;;;;;6276301;28;20107;-68
2022/09/25 15:05:19;;;;;;;5.90;5.30;;;;;;;;;;6276983;28;20053;-62
2022/09/25 15:08:23;;;;;;;6.97;5.65;;;;;;;;;;6273273;28;20052;-63
2022/09/25 15:11:28;;;;;;;7.28;5.53;;;;;;;;;;6270932;28;20312;-63
2022/09/25 15:14:30;;;;;;;6.68;5.97;;;;;;;;;;6276390;28;20057;-62
2022/09/25 15:17:33;;;;;;;8.48;5.70;;;;;;;;;;6274042;28;20055;-63
2022/09/25 15:20:35;;;;;;;9.70;6.57;;;;;;;;;;6270506;28;20054;-63
2022/09/25 15:23:37;;;;;;;6.65;5.95;;;;;;;;;;6273756;28;20049;-62
2022/09/25 15:26:48;;;;;;;6.95;6.25;;;;;;;;;;6274910;28;20073;-64
2022/09/25 15:29:50;;;;;;;7.82;6.25;;;;;;;;;;6273348;28;20060;-63
2022/09/25 15:32:54;;;;;;;7.32;6.20;;;;;;;;;;6266593;28;20063;-62
2022/09/25 15:35:55;;;;;;;;;;;;;;;;;;6273374;28;20110;-63
2022/09/25 15:39:00;;;;;;;7.20;6.50;;;;;;;;;;6274542;28;19932;-63
2022/09/25 15:42:05;;;;;;;6.65;5.90;;;;;;;;;;6274504;28;20290;-62
2022/09/25 15:45:39;;;;;;;6.15;5.55;;;;;;;;;;6274678;28;20488;-63
2022/09/25 15:48:42;;;;;;;6.35;5.75;;;;;;;;;;6275079;28;20044;-62
2022/09/25 15:51:59;;;;;;;5.82;5.32;;;;;;;;;;6273071;28;20052;-64
2022/09/25 15:55:04;;;;;;;5.45;4.95;;;;;;;;;;6270090;28;20049;-65
2022/09/25 15:58:15;;;;;;;5.93;5.35;;;;;;;;;;6274639;28;20246;-67
2022/09/25 16:04:48;;;;;;;6.40;5.78;;;;;;;;;;6276028;28;20064;-64
2022/09/25 16:07:49;;;;;;;6.22;5.57;;;;;;;;;;6273185;28;20057;-63
2022/09/25 16:11:04;;;;;;;5.95;5.35;;;;;;;;;;6272092;28;20102;-65
2022/09/25 16:14:21;;;;;;;6.45;5.40;;;;;;;;;;6272118;28;20057;-65
2022/09/25 16:17:25;;;;;;;6.63;5.68;;;;;;;;;;6274730;28;20055;-64
2022/09/25 16:20:31;;;;;;;6.95;5.97;;;;;;;;;;6268175;28;20045;-64
2022/09/25 16:23:33;;;;;;;6.40;5.80;;;;;;;;;;6275940;28;20108;-64
2022/09/25 16:26:37;;;;;;;6.70;6.10;;;;;;;;;;6276770;28;20040;-64
2022/09/25 16:29:40;;;;;;;6.22;5.63;;;;;;;;;;6276158;28;20089;-66
2022/09/25 16:32:46;;;;;;;6.47;5.82;;;;;;;;;;6275972;28;20063;-65
2022/09/25 16:35:47;;;;;;;5.85;5.32;;;;;;;;;;6276884;28;20116;-63
2022/09/25 16:39:13;;;;;;;5.25;4.78;;;;;;;;;;6278752;28;20275;-64
2022/09/25 16:42:26;;;;;;;7.32;6.63;;;;;;;;;;6283247;28;20048;-65
2022/09/25 16:45:32;;;;;;;13.20;7.22;;;;;;;;;;6283217;28;20045;-62
2022/09/25 16:48:36;;;;;;;8.23;6.07;;;;;;;;;;6278783;28;20061;-62
2022/09/25 16:51:41;;;;;;;9.82;6.55;;;;;;;;;;6282149;28;20138;-61
2022/09/25 16:54:42;;;;;;;6.70;6.00;;;;;;;;;;6280936;28;20106;-62
2022/09/25 16:57:44;;;;;;;7.57;6.78;;;;;;;;;;6284068;28;20056;-62
2022/09/25 17:00:47;;;;;;;8.15;6.25;;;;;;;;;;6281920;28;20110;-63
2022/09/25 17:03:54;;;;;;;7.32;6.63;;;;;;;;;;6282845;28;20072;-64
2022/09/25 17:06:57;;;;;;;7.05;6.30;;;;;;;;;;6280131;28;20354;-65
2022/09/25 17:10:00;;;;;;;9.00;7.32;;;;;;;;;;6277406;28;20065;-63
2022/09/25 17:13:02;;;;;;;9.10;7.97;;;;;;;;;;6276256;28;20060;-63
2022/09/25 17:16:06;;;;;;;8.73;6.88;;;;;;;;;;6280181;28;20467;-63
2022/09/25 17:19:14;;;;;;;6.88;5.97;;;;;;;;;;6279178;28;20059;-63
2022/09/25 17:22:16;;;;;;;7.78;6.65;;;;;;;;;;6280819;28;20057;-63
2022/09/25 17:25:38;;;;;;;7.15;6.32;;;;;;;;;;6280973;28;20076;-65
2022/09/25 17:28:41;;;;;;;7.70;6.68;;;;;;;;;;6275936;28;20055;-65
2022/09/25 17:31:44;;;;;;;7.32;6.63;;;;;;;;;;6272271;28;20056;-66
2022/09/25 17:34:46;;;;;;;8.77;7.30;;;;;;;;;;6274743;28;20056;-66
2022/09/25 17:37:48;;;;;;;7.85;7.05;;;;;;;;;;6274814;28;20049;-66
2022/09/25 17:40:51;;;;;;;7.88;7.10;;;;;;;;;;6274790;28;20048;-67
2022/09/25 17:43:53;;;;;;;;;;;;;;;;;;6276437;28;20521;-66
2022/09/25 17:46:58;;;;;;;8.95;7.40;;;;;;;;;;6275733;28;19917;-66
2022/09/25 17:50:00;;;;;;;8.85;7.88;;;;;;;;;;6276000;28;20138;-66
2022/09/25 17:53:03;;;;;;;8.85;7.25;;;;;;;;;;6272798;28;20316;-66
2022/09/25 17:56:05;;;;;;;8.15;7.35;;;;;;;;;;6273208;28;21139;-67
2022/09/25 17:59:10;;;;;;;8.82;7.72;;;;;;;;;;6272453;28;20155;-64
2022/09/25 18:02:17;;;;;;;9.25;8.25;;;;;;;;;;6271921;28;20057;-64
2022/09/25 18:05:28;;;;;;;8.27;7.43;;;;;;;;;;6277170;28;20320;-64
2022/09/25 18:08:29;;;;;;;8.73;7.85;;;;;;;;;;6272825;28;20055;-65
2022/09/25 18:11:31;;;;;;;8.48;7.68;;;;;;;;;;6275056;28;20053;-64
2022/09/25 18:14:34;;;;;;;11.07;8.50;;;;;;;;;;6273704;28;20106;-64
2022/09/25 18:17:37;;;;;;;14.65;8.70;;;;;;;;;;6277298;28;20068;-65
2022/09/25 18:24:03;;;;;;;8.55;7.72;;;;;;;;;;6228716;28;20407;-65
2022/09/25 18:27:05;;;;;;;8.55;7.65;;;;;;;;;;6226661;28;20049;-64
2022/09/25 18:30:11;;;;;;;9.65;8.40;;;;;;;;;;6225848;28;20054;-64
2022/09/25 18:33:16;;;;;;;11.18;8.80;;;;;;;;;;6226864;28;20132;-66
2022/09/25 18:36:17;;;;;;;9.10;8.20;;;;;;;;;;6225303;28;25067;-66
2022/09/25 18:39:21;;;;;;;11.02;8.82;;;;;;;;;;6224086;28;20058;-67